createdAt,value
2019-05-07T00:01:02.725Z,6.37
2019-05-07T00:03:32.872Z,6.50
2019-05-07T00:06:02.806Z,6.40
2019-05-07T00:08:32.264Z,6.90
2019-05-07T00:11:02.376Z,6.90
2019-05-07T00:13:33.342Z,6.83
2019-05-07T00:16:02.607Z,7.00
2019-05-07T00:18:32.197Z,6.87
2019-05-07T00:21:03.383Z,7.40
2019-05-07T00:23:32.555Z,7.27
2019-05-07T00:26:03.256Z,7.27
2019-05-07T00:28:32.558Z,7.53
2019-05-07T00:31:02.828Z,8.70
2019-05-07T00:33:32.911Z,8.53
2019-05-07T00:36:13.236Z,8.33
2019-05-07T00:38:44.726Z,8.57
2019-05-07T00:41:19.734Z,8.70
2019-05-07T00:43:52.490Z,8.17
2019-05-07T00:46:24.406Z,10.33
2019-05-07T00:48:53.292Z,9.77
2019-05-07T00:51:30.570Z,10.30
2019-05-07T00:54:02.697Z,9.60
2019-05-07T00:56:33.021Z,8.70
2019-05-07T00:59:02.214Z,10.30
2019-05-07T01:01:32.332Z,9.40
2019-05-07T01:04:02.661Z,9.87
2019-05-07T01:06:33.085Z,9.60
2019-05-07T01:09:03.474Z,10.10
2019-05-07T01:11:33.472Z,9.50
2019-05-07T01:14:02.919Z,10.17
2019-05-07T01:16:32.949Z,10.43
2019-05-07T01:19:02.218Z,9.83
2019-05-07T01:21:32.431Z,9.47
2019-05-07T01:24:03.225Z,9.20
2019-05-07T01:26:33.157Z,8.53
2019-05-07T01:29:03.202Z,8.53
2019-05-07T01:31:43.109Z,9.60
2019-05-07T01:34:23.646Z,8.07
2019-05-07T01:36:52.479Z,8.53
2019-05-07T01:39:23.192Z,8.80
2019-05-07T01:41:52.513Z,9.60
2019-05-07T01:44:22.146Z,7.97
2019-05-07T01:46:52.954Z,9.90
2019-05-07T01:49:23.843Z,7.63
2019-05-07T01:51:52.969Z,8.30
2019-05-07T01:54:23.755Z,7.67
2019-05-07T01:56:52.371Z,8.20
2019-05-07T01:59:22.512Z,7.73
2019-05-07T02:01:52.996Z,8.40
2019-05-07T02:04:33.688Z,9.27
2019-05-07T02:07:22.580Z,8.20
2019-05-07T02:09:56.650Z,8.33
2019-05-07T02:12:31.782Z,8.13
2019-05-07T02:15:02.600Z,8.50
2019-05-07T02:17:32.239Z,8.43
2019-05-07T02:20:02.662Z,8.93
2019-05-07T02:22:32.088Z,8.57
2019-05-07T02:25:03.071Z,8.30
2019-05-07T02:27:32.846Z,8.90
2019-05-07T02:30:04.142Z,8.97
2019-05-07T02:32:33.470Z,8.70
2019-05-07T02:35:03.965Z,8.43
2019-05-07T02:37:48.409Z,8.47
2019-05-07T02:40:22.953Z,8.23
2019-05-07T02:42:54.065Z,8.23
2019-05-07T02:45:39.799Z,9.03
2019-05-07T02:48:08.935Z,8.20
2019-05-07T02:51:04.186Z,7.63
2019-05-07T02:53:45.500Z,8.40
2019-05-07T02:56:14.218Z,8.10
2019-05-07T02:58:43.558Z,8.20
2019-05-07T03:01:13.815Z,7.97
2019-05-07T03:03:44.945Z,8.10
2019-05-07T03:06:13.904Z,7.83
2019-05-07T03:08:43.921Z,7.60
2019-05-07T03:11:14.271Z,8.03
2019-05-07T03:13:43.600Z,8.03
2019-05-07T03:16:13.240Z,7.60
2019-05-07T03:18:43.895Z,8.23
2019-05-07T03:21:15.722Z,9.20
2019-05-07T03:24:03.508Z,8.20
2019-05-07T03:26:34.637Z,8.17
2019-05-07T03:29:06.930Z,8.90
2019-05-07T03:31:56.259Z,8.77
2019-05-07T03:34:47.415Z,8.63
2019-05-07T03:37:19.743Z,7.93
2019-05-07T03:39:48.513Z,8.00
2019-05-07T03:42:17.304Z,9.27
2019-05-07T03:44:53.757Z,9.13
2019-05-07T03:47:29.112Z,9.13
2019-05-07T03:49:57.935Z,8.53
2019-05-07T03:52:26.698Z,8.63
2019-05-07T03:54:55.438Z,9.43
2019-05-07T03:57:24.207Z,9.83
2019-05-07T03:59:53.487Z,9.50
2019-05-07T04:02:23.809Z,9.10
2019-05-07T04:04:53.153Z,9.33
2019-05-07T04:07:23.286Z,8.90
2019-05-07T04:09:53.509Z,8.70
2019-05-07T04:12:23.976Z,9.50
2019-05-07T04:14:53.586Z,9.13
2019-05-07T04:17:26.717Z,9.73
2019-05-07T04:19:53.390Z,8.10
2019-05-07T04:22:25.218Z,9.10
2019-05-07T04:25:13.160Z,9.30
2019-05-07T04:27:48.481Z,9.50
2019-05-07T04:30:17.385Z,9.10
2019-05-07T04:32:52.775Z,8.43
2019-05-07T04:35:33.161Z,9.50
2019-05-07T04:38:03.398Z,9.57
2019-05-07T04:40:33.648Z,8.93
2019-05-07T04:43:04.190Z,9.47
2019-05-07T04:45:33.805Z,10.30
2019-05-07T04:48:03.299Z,10.40
2019-05-07T04:50:42.558Z,9.63
2019-05-07T04:53:04.766Z,9.93
2019-05-07T04:55:33.775Z,10.53
2019-05-07T04:58:04.542Z,10.20
2019-05-07T05:00:33.772Z,10.97
2019-05-07T05:03:23.718Z,11.57
2019-05-07T05:05:53.190Z,11.90
2019-05-07T05:08:23.629Z,11.90
2019-05-07T05:10:53.829Z,12.47
2019-05-07T05:13:23.849Z,11.43
2019-05-07T05:15:53.063Z,11.87
2019-05-07T05:18:22.176Z,11.87
2019-05-07T05:21:19.400Z,11.40
2019-05-07T05:24:01.878Z,12.20
2019-05-07T05:26:32.653Z,11.87
2019-05-07T05:29:02.402Z,12.20
2019-05-07T05:31:33.048Z,13.40
2019-05-07T05:34:02.292Z,13.70
2019-05-07T05:36:32.957Z,13.03
2019-05-07T05:39:02.463Z,13.43
2019-05-07T05:41:34.080Z,13.07
2019-05-07T05:44:07.304Z,14.53
2019-05-07T05:46:36.053Z,15.13
2019-05-07T05:49:04.943Z,15.47
2019-05-07T05:51:52.501Z,15.60
2019-05-07T05:54:34.803Z,16.03
2019-05-07T05:57:23.007Z,16.17
2019-05-07T06:00:06.107Z,15.97
2019-05-07T06:02:57.144Z,16.77
2019-05-07T06:05:47.853Z,17.23
2019-05-07T06:08:34.471Z,17.40
2019-05-07T06:11:08.912Z,17.90
2019-05-07T06:13:59.767Z,17.43
2019-05-07T06:16:36.600Z,18.27
2019-05-07T06:19:18.607Z,19.10
2019-05-07T06:24:58.466Z,18.83
2019-05-07T06:27:27.209Z,18.10
2019-05-07T06:29:56.375Z,18.67
2019-05-07T06:32:25.259Z,19.87
2019-05-07T06:34:54.172Z,19.50
2019-05-07T06:37:23.005Z,19.47
2019-05-07T06:40:12.122Z,20.07
2019-05-07T06:42:52.355Z,18.70
2019-05-07T06:45:24.735Z,18.60
2019-05-07T06:47:53.476Z,19.97
2019-05-07T06:50:22.270Z,19.63
2019-05-07T06:52:51.910Z,18.87
2019-05-07T06:55:22.798Z,19.17
2019-05-07T06:57:53.065Z,19.70
2019-05-07T07:00:42.474Z,19.47
2019-05-07T07:03:26.866Z,18.77
2019-05-07T07:06:19.046Z,19.70
2019-05-07T07:08:54.791Z,19.23
2019-05-07T07:11:32.370Z,20.43
2019-05-07T07:14:02.612Z,19.67
2019-05-07T07:16:32.609Z,19.83
2019-05-07T07:19:03.345Z,21.03
2019-05-07T07:21:32.791Z,21.30
2019-05-07T07:24:03.019Z,19.53
2019-05-07T07:26:33.538Z,21.13
2019-05-07T07:29:02.280Z,20.73
2019-05-07T07:31:44.855Z,20.30
2019-05-07T07:34:13.603Z,19.77
2019-05-07T07:37:03.089Z,20.40
2019-05-07T07:39:22.057Z,20.50
2019-05-07T07:41:53.598Z,19.27
2019-05-07T07:44:22.467Z,20.23
2019-05-07T07:46:53.123Z,18.63
2019-05-07T07:49:22.201Z,17.70
2019-05-07T07:51:52.547Z,19.03
2019-05-07T07:54:22.718Z,18.60
2019-05-07T07:57:09.446Z,17.37
2019-05-07T07:59:56.123Z,15.30
2019-05-07T08:02:32.706Z,15.07
2019-05-07T08:05:02.118Z,15.70
2019-05-07T08:07:32.992Z,15.07
2019-05-07T08:10:02.569Z,16.37
2019-05-07T08:12:32.513Z,17.53
2019-05-07T08:15:14.544Z,16.80
2019-05-07T08:17:32.723Z,16.80
2019-05-07T08:20:02.637Z,17.30
2019-05-07T08:22:33.007Z,15.17
2019-05-07T08:25:03.619Z,15.30
2019-05-07T08:27:32.587Z,15.23
2019-05-07T08:30:02.946Z,13.57
2019-05-07T08:32:38.998Z,14.53
2019-05-07T08:35:15.318Z,13.97
2019-05-07T08:37:44.076Z,14.67
2019-05-07T08:40:13.469Z,14.50
2019-05-07T08:42:42.215Z,13.30
2019-05-07T08:45:29.440Z,13.67
2019-05-07T08:48:02.084Z,14.87
2019-05-07T08:50:32.661Z,14.80
2019-05-07T08:53:02.808Z,14.33
2019-05-07T08:55:32.225Z,13.57
2019-05-07T08:58:02.181Z,14.83
2019-05-07T09:00:32.611Z,13.87
2019-05-07T09:03:01.792Z,14.07
2019-05-07T09:05:32.339Z,16.03
2019-05-07T09:08:02.271Z,16.33
2019-05-07T09:10:32.495Z,15.13
2019-05-07T09:13:02.782Z,15.30
2019-05-07T09:15:32.139Z,14.83
2019-05-07T09:18:02.073Z,14.03
2019-05-07T09:20:32.193Z,14.17
2019-05-07T09:23:02.091Z,14.60
2019-05-07T09:25:34.276Z,13.63
2019-05-07T09:28:03.191Z,14.77
2019-05-07T09:31:03.171Z,15.73
2019-05-07T09:33:45.271Z,14.23
2019-05-07T09:36:22.615Z,14.03
2019-05-07T09:38:56.719Z,14.60
2019-05-07T09:41:27.446Z,14.43
2019-05-07T09:43:59.375Z,14.10
2019-05-07T09:46:28.250Z,12.83
2019-05-07T09:48:57.095Z,13.63
2019-05-07T09:51:25.886Z,12.13
2019-05-07T09:53:54.662Z,11.63
2019-05-07T09:56:23.447Z,12.57
2019-05-07T09:58:53.872Z,13.07
2019-05-07T10:01:23.671Z,13.93
2019-05-07T10:03:53.063Z,14.03
2019-05-07T10:06:22.915Z,14.03
2019-05-07T10:08:52.442Z,13.30
2019-05-07T10:11:37.006Z,12.53
2019-05-07T10:14:09.441Z,12.27
2019-05-07T10:17:02.613Z,11.40
2019-05-07T10:19:32.525Z,12.00
2019-05-07T10:22:02.304Z,10.63
2019-05-07T10:24:31.654Z,11.73
2019-05-07T10:27:02.217Z,12.10
2019-05-07T10:29:32.270Z,11.57
2019-05-07T10:32:02.404Z,10.80
2019-05-07T10:34:31.198Z,11.47
2019-05-07T10:37:00.076Z,11.07
2019-05-07T10:39:28.907Z,10.90
2019-05-07T10:42:01.844Z,11.27
2019-05-07T10:44:36.459Z,10.43
2019-05-07T10:47:42.560Z,10.87
2019-05-07T10:50:17.866Z,10.37
2019-05-07T10:52:46.829Z,11.33
2019-05-07T10:55:16.258Z,12.40
2019-05-07T10:57:45.017Z,11.33
2019-05-07T11:00:17.017Z,11.20
2019-05-07T11:02:45.880Z,11.53
2019-05-07T11:05:15.741Z,11.37
2019-05-07T11:07:44.617Z,11.40
2019-05-07T11:10:14.276Z,12.00
2019-05-07T11:12:43.220Z,12.10
2019-05-07T11:15:12.779Z,10.72
2019-05-07T11:17:53.574Z,10.50
2019-05-07T11:20:22.651Z,9.10
2019-05-07T11:23:10.804Z,9.60
2019-05-07T11:25:39.650Z,10.05
2019-05-07T11:28:09.319Z,10.97
2019-05-07T11:30:38.199Z,11.60
2019-05-07T11:33:07.220Z,10.60
2019-05-07T11:35:36.191Z,10.77
2019-05-07T11:38:17.655Z,10.60
2019-05-07T11:40:36.064Z,11.10
2019-05-07T11:43:14.140Z,11.17
2019-05-07T11:45:48.271Z,10.60
2019-05-07T11:48:18.296Z,11.07
2019-05-07T11:51:04.329Z,11.83
2019-05-07T11:53:32.831Z,10.47
2019-05-07T11:56:02.591Z,12.70
2019-05-07T11:58:32.557Z,12.47
2019-05-07T12:01:13.847Z,12.70
2019-05-07T12:03:42.950Z,12.70
2019-05-07T12:06:12.461Z,12.18
2019-05-07T12:08:48.268Z,12.13
2019-05-07T12:11:12.054Z,12.58
2019-05-07T12:13:42.755Z,11.65
2019-05-07T12:16:14.106Z,11.93
2019-05-07T12:18:43.109Z,11.12
2019-05-07T12:21:20.208Z,11.22
2019-05-07T12:23:42.880Z,12.15
2019-05-07T12:26:12.543Z,10.68
2019-05-07T12:28:42.019Z,11.03
2019-05-07T12:31:22.443Z,11.48
2019-05-07T12:34:16.421Z,10.72
2019-05-07T12:36:45.340Z,10.43
2019-05-07T12:39:14.268Z,10.32
2019-05-07T12:41:43.172Z,10.63
2019-05-07T12:44:12.988Z,8.93
2019-05-07T12:46:42.511Z,7.50
2019-05-07T12:49:12.124Z,6.85
2019-05-07T12:51:55.766Z,7.10
2019-05-07T12:54:36.675Z,6.93
2019-05-07T12:57:05.729Z,7.20
2019-05-07T12:59:53.792Z,7.13
2019-05-07T13:02:41.063Z,7.47
2019-05-07T13:05:08.659Z,7.80
2019-05-07T13:08:02.612Z,7.63
2019-05-07T13:10:32.466Z,7.73
2019-05-07T13:13:02.203Z,8.90
2019-05-07T13:15:32.644Z,8.57
2019-05-07T13:18:02.786Z,8.63
2019-05-07T13:20:32.083Z,9.23
2019-05-07T13:23:00.844Z,10.10
2019-05-07T13:25:29.721Z,10.10
2019-05-07T13:27:58.971Z,10.17
2019-05-07T13:30:27.962Z,9.77
2019-05-07T13:33:02.003Z,10.13
2019-05-07T13:35:32.052Z,10.37
2019-05-07T13:38:23.326Z,10.60
2019-05-07T13:40:55.374Z,10.77
2019-05-07T13:43:28.982Z,10.10
2019-05-07T13:46:02.604Z,11.40
2019-05-07T13:48:31.977Z,10.00
2019-05-07T13:51:01.783Z,10.30
2019-05-07T13:53:32.276Z,10.70
2019-05-07T13:56:02.341Z,10.10
2019-05-07T13:58:32.919Z,10.50
2019-05-07T14:01:12.200Z,10.40
2019-05-07T14:03:41.142Z,10.20
2019-05-07T14:06:12.644Z,10.72
2019-05-07T14:08:42.728Z,11.50
2019-05-07T14:11:12.251Z,11.03
2019-05-07T14:13:43.422Z,10.32
2019-05-07T14:16:13.331Z,10.18
2019-05-07T14:18:42.224Z,10.00
2019-05-07T14:21:13.002Z,9.90
2019-05-07T14:23:42.820Z,10.32
2019-05-07T14:26:12.159Z,11.05
2019-05-07T14:28:42.316Z,10.20
2019-05-07T14:31:12.305Z,9.60
2019-05-07T14:33:54.143Z,9.73
2019-05-07T14:36:28.231Z,9.13
2019-05-07T14:38:57.093Z,9.08
2019-05-07T14:41:25.950Z,9.85
2019-05-07T14:44:13.071Z,10.10
2019-05-07T14:46:50.326Z,10.08
2019-05-07T14:49:12.873Z,9.83
2019-05-07T14:51:41.751Z,10.18
2019-05-07T14:54:12.327Z,10.63
2019-05-07T14:56:42.875Z,10.93
2019-05-07T14:59:12.827Z,10.88
2019-05-07T15:01:42.948Z,10.10
2019-05-07T15:04:12.905Z,10.45
2019-05-07T15:06:42.059Z,11.15
2019-05-07T15:09:12.117Z,10.82
2019-05-07T15:11:42.506Z,10.72
2019-05-07T15:14:12.152Z,11.00
2019-05-07T15:16:42.658Z,11.15
2019-05-07T15:19:12.486Z,11.20
2019-05-07T15:21:42.587Z,10.03
2019-05-07T15:24:13.822Z,10.80
2019-05-07T15:26:43.459Z,9.93
2019-05-07T15:29:14.208Z,9.78
2019-05-07T15:32:14.348Z,9.33
2019-05-07T15:34:43.152Z,9.53
2019-05-07T15:37:12.345Z,9.53
2019-05-07T15:39:42.143Z,9.48
2019-05-07T15:42:11.223Z,9.98
2019-05-07T15:44:40.185Z,9.30
2019-05-07T15:47:14.026Z,8.98
2019-05-07T15:49:42.769Z,10.23
2019-05-07T15:52:17.542Z,10.28
2019-05-07T15:54:46.298Z,10.68
2019-05-07T15:57:19.038Z,9.63
2019-05-07T15:59:49.512Z,10.53
2019-05-07T16:02:27.015Z,10.65
2019-05-07T16:04:57.924Z,10.88
2019-05-07T16:07:26.940Z,10.38
2019-05-07T16:09:56.103Z,11.05
2019-05-07T16:12:26.567Z,10.65
2019-05-07T16:14:55.651Z,10.65
2019-05-07T16:17:37.529Z,10.45
2019-05-07T16:20:06.859Z,10.20
2019-05-07T16:22:39.338Z,10.72
2019-05-07T16:25:08.341Z,11.48
2019-05-07T16:27:42.346Z,10.82
2019-05-07T16:30:14.306Z,11.00
2019-05-07T16:32:43.063Z,11.10
2019-05-07T16:35:12.452Z,10.78
2019-05-07T16:37:42.839Z,10.65
2019-05-07T16:40:12.890Z,10.20
2019-05-07T16:42:42.871Z,10.88
2019-05-07T16:45:13.825Z,10.80
2019-05-07T16:47:42.669Z,10.75
2019-05-07T16:50:12.942Z,10.72
2019-05-07T16:52:42.380Z,11.05
2019-05-07T16:55:12.250Z,10.03
2019-05-07T16:58:15.475Z,10.15
2019-05-07T17:00:47.368Z,11.50
2019-05-07T17:03:20.674Z,11.48
2019-05-07T17:05:49.654Z,12.53
2019-05-07T17:08:32.271Z,11.35
2019-05-07T17:11:03.066Z,11.93
2019-05-07T17:13:32.064Z,11.65
2019-05-07T17:16:03.405Z,11.90
2019-05-07T17:18:32.740Z,11.93
2019-05-07T17:21:02.181Z,11.63
2019-05-07T17:23:43.825Z,12.13
2019-05-07T17:26:04.782Z,11.22
2019-05-07T17:28:33.063Z,11.63
2019-05-07T17:31:03.058Z,12.05
2019-05-07T17:33:32.471Z,11.95
2019-05-07T17:36:02.515Z,12.33
2019-05-07T17:38:32.225Z,11.85
2019-05-07T17:41:10.935Z,11.85
2019-05-07T17:43:32.606Z,11.75
2019-05-07T17:46:02.861Z,11.85
2019-05-07T17:48:32.772Z,11.65
2019-05-07T17:51:24.395Z,11.43
2019-05-07T17:53:59.407Z,11.70
2019-05-07T17:56:25.724Z,11.78
2019-05-07T17:58:54.711Z,12.45
2019-05-07T18:01:45.663Z,11.25
2019-05-07T18:04:14.757Z,11.85
2019-05-07T18:06:43.730Z,11.78
2019-05-07T18:09:12.687Z,11.93
2019-05-07T18:11:42.899Z,12.18
2019-05-07T18:14:11.890Z,11.85
2019-05-07T18:17:06.651Z,12.63
2019-05-07T18:19:35.440Z,12.85
2019-05-07T18:22:04.403Z,12.80
2019-05-07T18:24:33.294Z,13.10
2019-05-07T18:27:03.731Z,13.28
2019-05-07T18:29:32.880Z,12.68
2019-05-07T18:32:03.265Z,13.80
2019-05-07T18:34:32.330Z,13.97
2019-05-07T18:37:02.138Z,13.57
2019-05-07T18:39:32.453Z,12.90
2019-05-07T18:42:02.775Z,12.83
2019-05-07T18:44:32.520Z,13.53
2019-05-07T18:47:02.318Z,13.30
2019-05-07T18:49:31.831Z,14.07
2019-05-07T18:52:02.722Z,13.20
2019-05-07T18:54:31.737Z,13.93
2019-05-07T18:57:02.310Z,13.83
2019-05-07T18:59:33.205Z,13.13
2019-05-07T19:02:02.387Z,14.70
2019-05-07T19:04:32.789Z,12.73
2019-05-07T19:07:02.579Z,13.53
2019-05-07T19:09:32.173Z,14.80
2019-05-07T19:12:01.400Z,14.20
2019-05-07T19:14:33.142Z,13.83
2019-05-07T19:17:03.176Z,14.07
2019-05-07T19:19:32.787Z,13.30
2019-05-07T19:22:02.217Z,13.60
2019-05-07T19:24:44.183Z,14.10
2019-05-07T19:27:02.276Z,13.90
2019-05-07T19:29:32.540Z,13.43
2019-05-07T19:32:03.176Z,14.67
2019-05-07T19:34:32.528Z,13.87
2019-05-07T19:37:02.584Z,15.17
2019-05-07T19:39:32.446Z,15.70
2019-05-07T19:42:02.595Z,15.67
2019-05-07T19:44:31.673Z,16.10
2019-05-07T19:47:02.031Z,15.20
2019-05-07T19:49:32.472Z,16.03
2019-05-07T19:52:01.812Z,16.57
2019-05-07T19:54:32.393Z,17.50
2019-05-07T19:57:02.669Z,16.63
2019-05-07T19:59:32.732Z,16.63
2019-05-07T20:02:03.264Z,17.03
2019-05-07T20:04:32.229Z,16.90
2019-05-07T20:07:02.850Z,17.83
2019-05-07T20:09:34.451Z,17.90
2019-05-07T20:12:03.790Z,18.20
2019-05-07T20:14:33.236Z,18.13
2019-05-07T20:17:02.159Z,17.83
2019-05-07T20:19:32.316Z,18.43
2019-05-07T20:22:02.139Z,18.77
2019-05-07T20:24:32.578Z,18.27
2019-05-07T20:27:03.056Z,19.23
2019-05-07T20:29:32.429Z,19.30
2019-05-07T20:32:01.292Z,19.63
2019-05-07T20:34:30.233Z,20.07
2019-05-07T20:36:59.203Z,19.63
2019-05-07T20:39:27.944Z,20.40
2019-05-07T20:41:56.867Z,19.60
2019-05-07T20:44:25.857Z,19.07
2019-05-07T20:46:54.602Z,19.67
2019-05-07T20:49:23.416Z,19.93
2019-05-07T20:51:52.614Z,18.80
2019-05-07T20:54:29.676Z,19.40
2019-05-07T20:57:05.035Z,20.40
2019-05-07T20:59:33.796Z,19.67
2019-05-07T21:02:02.540Z,19.37
2019-05-07T21:04:33.054Z,18.97
2019-05-07T21:07:02.190Z,19.03
2019-05-07T21:09:32.871Z,18.00
2019-05-07T21:12:01.737Z,18.13
2019-05-07T21:14:32.438Z,17.50
2019-05-07T21:17:01.247Z,16.50
2019-05-07T21:19:30.230Z,16.13
2019-05-07T21:21:59.106Z,16.47
2019-05-07T21:24:27.951Z,16.63
2019-05-07T21:26:57.167Z,16.33
2019-05-07T21:29:26.116Z,15.80
2019-05-07T21:31:54.994Z,16.73
2019-05-07T21:34:23.894Z,16.07
2019-05-07T21:36:52.797Z,15.30
2019-05-07T21:39:22.343Z,15.23
2019-05-07T21:41:51.964Z,15.63
2019-05-07T21:44:22.675Z,15.67
2019-05-07T21:46:51.886Z,15.50
2019-05-07T21:49:22.878Z,15.33
2019-05-07T21:51:52.247Z,15.13
2019-05-07T21:54:37.962Z,13.83
2019-05-07T21:57:22.562Z,14.20
2019-05-07T22:00:12.487Z,14.73
2019-05-07T22:02:41.892Z,14.40
2019-05-07T22:05:11.837Z,14.80
2019-05-07T22:07:40.912Z,14.73
2019-05-07T22:10:09.947Z,14.37
2019-05-07T22:12:38.819Z,13.60
2019-05-07T22:15:08.131Z,14.83
2019-05-07T22:17:37.046Z,13.80
2019-05-07T22:20:06.103Z,13.83
2019-05-07T22:22:35.021Z,13.90
2019-05-07T22:25:05.306Z,14.10
2019-05-07T22:27:34.436Z,14.73
2019-05-07T22:30:04.464Z,13.53
2019-05-07T22:32:44.024Z,14.73
2019-05-07T22:35:22.710Z,13.83
2019-05-07T22:37:51.974Z,14.80
2019-05-07T22:40:22.637Z,13.83
2019-05-07T22:42:51.599Z,13.53
2019-05-07T22:45:22.539Z,13.87
2019-05-07T22:47:52.604Z,14.40
2019-05-07T22:50:22.578Z,14.17
2019-05-07T22:52:52.560Z,14.53
2019-05-07T22:55:21.995Z,13.70
2019-05-07T22:58:02.180Z,14.50
2019-05-07T23:00:37.223Z,15.13
2019-05-07T23:03:06.045Z,15.27
2019-05-07T23:05:34.918Z,14.43
2019-05-07T23:08:04.063Z,13.80
2019-05-07T23:10:33.392Z,14.40
2019-05-07T23:13:02.458Z,15.27
2019-05-07T23:15:32.190Z,14.30
2019-05-07T23:18:04.145Z,13.70
2019-05-07T23:20:32.067Z,15.10
2019-05-07T23:23:01.008Z,14.50
2019-05-07T23:25:32.071Z,14.50
2019-05-07T23:28:04.875Z,14.67
2019-05-07T23:30:33.105Z,14.30
2019-05-07T23:33:02.415Z,15.60
2019-05-07T23:35:32.869Z,15.23
2019-05-07T23:38:02.500Z,15.10
2019-05-07T23:40:49.367Z,14.63
2019-05-07T23:43:18.345Z,14.10
2019-05-07T23:45:47.130Z,15.30
2019-05-07T23:48:15.933Z,15.07
2019-05-07T23:50:44.771Z,14.60
2019-05-07T23:53:13.603Z,15.30
2019-05-07T23:55:42.556Z,14.63
2019-05-07T23:58:13.825Z,15.40
